createdAt,value
2022-11-05T00:01:30.569Z,10.60
2022-11-05T00:04:15.830Z,10.60
2022-11-05T00:07:01.360Z,10.60
2022-11-05T00:09:31.185Z,10.60
2022-11-05T00:12:24.772Z,10.60
2022-11-05T00:15:10.410Z,10.60
2022-11-05T00:17:37.987Z,10.70
2022-11-05T00:20:06.406Z,10.70
2022-11-05T00:22:51.686Z,10.70
2022-11-05T00:25:19.392Z,10.80
2022-11-05T00:27:48.773Z,10.80
2022-11-05T00:30:18.493Z,10.80
2022-11-05T00:32:47.433Z,10.80
2022-11-05T00:35:15.221Z,10.80
2022-11-05T00:37:47.123Z,10.80
2022-11-05T00:40:16.594Z,10.80
2022-11-05T00:43:04.211Z,10.90
2022-11-05T00:45:31.482Z,10.90
2022-11-05T00:48:16.831Z,10.90
2022-11-05T00:50:43.763Z,10.90
2022-11-05T00:53:10.969Z,10.90
2022-11-05T00:55:42.474Z,10.90
2022-11-05T00:58:20.402Z,10.90
2022-11-05T01:00:54.740Z,10.90
2022-11-05T01:03:24.621Z,10.90
2022-11-05T01:05:54.373Z,10.90
2022-11-05T01:08:23.038Z,10.90
2022-11-05T01:10:55.427Z,10.90
2022-11-05T01:13:25.499Z,10.90
2022-11-05T01:15:52.831Z,10.90
2022-11-05T01:18:21.101Z,10.90
2022-11-05T01:20:48.597Z,10.80
2022-11-05T01:23:16.574Z,10.80
2022-11-05T01:25:43.798Z,10.80
2022-11-05T01:28:10.837Z,10.80
2022-11-05T01:30:38.562Z,10.70
2022-11-05T01:33:05.960Z,10.70
2022-11-05T01:35:32.941Z,10.70
2022-11-05T01:37:59.801Z,10.70
2022-11-05T01:40:26.875Z,10.60
2022-11-05T01:42:53.687Z,10.60
2022-11-05T01:45:26.883Z,10.50
2022-11-05T01:47:59.281Z,10.50
2022-11-05T01:50:49.134Z,10.50
2022-11-05T01:53:22.082Z,10.50
2022-11-05T01:56:14.618Z,10.50
2022-11-05T01:59:18.336Z,10.50
2022-11-05T02:01:45.536Z,10.50
2022-11-05T02:04:18.268Z,10.50
2022-11-05T02:06:48.886Z,10.50
2022-11-05T02:09:22.446Z,10.40
2022-11-05T02:11:51.163Z,10.40
2022-11-05T02:14:18.497Z,10.30
2022-11-05T02:16:52.852Z,10.40
2022-11-05T02:19:38.184Z,10.40
2022-11-05T02:22:43.358Z,10.40
2022-11-05T02:25:32.515Z,10.40
2022-11-05T02:28:17.390Z,10.30
2022-11-05T02:31:10.078Z,10.30
2022-11-05T02:34:04.734Z,10.40
2022-11-05T02:37:28.262Z,10.30
2022-11-05T02:40:09.867Z,10.30
2022-11-05T02:42:57.272Z,10.40
2022-11-05T02:45:54.105Z,10.40
2022-11-05T02:48:23.828Z,10.40
2022-11-05T02:51:29.052Z,10.40
2022-11-05T02:54:15.039Z,10.30
2022-11-05T02:56:46.387Z,10.40
2022-11-05T02:59:13.499Z,10.30
2022-11-05T03:01:42.774Z,10.30
2022-11-05T03:04:12.950Z,10.20
2022-11-05T03:06:59.754Z,10.30
2022-11-05T03:09:54.890Z,10.20
2022-11-05T03:12:30.481Z,10.20
2022-11-05T03:15:18.811Z,10.20
2022-11-05T03:18:23.145Z,10.30
2022-11-05T03:20:56.879Z,10.30
2022-11-05T03:23:42.654Z,10.20
2022-11-05T03:26:27.254Z,10.20
2022-11-05T03:29:06.725Z,10.20
2022-11-05T03:31:36.986Z,10.20
2022-11-05T03:34:06.617Z,10.30
2022-11-05T03:36:39.751Z,10.20
2022-11-05T03:39:11.013Z,10.20
2022-11-05T03:41:43.232Z,10.20
2022-11-05T03:44:13.438Z,10.20
2022-11-05T03:46:45.303Z,10.20
2022-11-05T03:49:19.163Z,10.20
2022-11-05T03:51:52.422Z,10.10
2022-11-05T03:54:19.494Z,10.10
2022-11-05T03:57:13.265Z,10.10
2022-11-05T03:59:43.884Z,10.10
2022-11-05T04:02:12.048Z,10.10
2022-11-05T04:04:39.534Z,10.20
2022-11-05T04:07:26.234Z,10.10
2022-11-05T04:10:11.755Z,10.20
2022-11-05T04:12:57.402Z,10.20
2022-11-05T04:15:24.866Z,10.20
2022-11-05T04:17:51.726Z,10.20
2022-11-05T04:20:37.319Z,10.20
2022-11-05T04:23:25.028Z,10.20
2022-11-05T04:25:51.948Z,10.30
2022-11-05T04:28:19.254Z,10.20
2022-11-05T04:30:46.045Z,10.20
2022-11-05T04:33:16.862Z,10.30
2022-11-05T04:35:45.814Z,10.20
2022-11-05T04:38:17.790Z,10.30
2022-11-05T04:40:45.738Z,10.30
2022-11-05T04:43:15.309Z,10.30
2022-11-05T04:45:43.062Z,10.30
2022-11-05T04:48:10.218Z,10.30
2022-11-05T04:50:37.469Z,10.30
2022-11-05T04:53:04.265Z,10.30
2022-11-05T04:55:31.321Z,10.20
2022-11-05T04:57:58.155Z,10.30
2022-11-05T05:00:25.029Z,10.30
2022-11-05T05:02:51.999Z,10.30
2022-11-05T05:05:18.827Z,10.30
2022-11-05T05:07:45.732Z,10.30
2022-11-05T05:10:13.352Z,10.40
2022-11-05T05:12:40.294Z,10.40
2022-11-05T05:15:07.499Z,10.40
2022-11-05T05:17:34.330Z,10.40
2022-11-05T05:20:20.022Z,10.40
2022-11-05T05:22:55.977Z,10.40
2022-11-05T05:25:22.774Z,10.40
2022-11-05T05:27:49.675Z,10.50
2022-11-05T05:30:16.612Z,10.50
2022-11-05T05:32:43.600Z,10.50
2022-11-05T05:35:10.409Z,10.50
2022-11-05T05:37:37.235Z,10.50
2022-11-05T05:40:04.590Z,10.40
2022-11-05T05:42:31.462Z,10.40
2022-11-05T05:44:58.386Z,10.40
2022-11-05T05:47:25.171Z,10.40
2022-11-05T05:49:52.300Z,10.40
2022-11-05T05:52:19.290Z,10.40
2022-11-05T05:54:46.108Z,10.40
2022-11-05T05:57:12.916Z,10.40
2022-11-05T05:59:39.750Z,10.40
2022-11-05T06:02:06.704Z,10.40
2022-11-05T06:04:33.732Z,10.40
2022-11-05T06:07:00.514Z,10.40
2022-11-05T06:09:27.293Z,10.40
2022-11-05T06:11:54.091Z,10.40
2022-11-05T06:14:20.891Z,10.30
2022-11-05T06:16:47.742Z,10.30
2022-11-05T06:19:14.551Z,10.30
2022-11-05T06:21:41.364Z,10.30
2022-11-05T06:24:08.692Z,10.30
2022-11-05T06:26:35.498Z,10.30
2022-11-05T06:29:02.343Z,10.30
2022-11-05T06:31:29.200Z,10.30
2022-11-05T06:33:55.979Z,10.30
2022-11-05T06:36:22.756Z,10.20
2022-11-05T06:38:49.637Z,10.20
2022-11-05T06:41:16.433Z,10.20
2022-11-05T06:43:43.411Z,10.20
2022-11-05T06:46:11.543Z,10.20
2022-11-05T06:48:39.154Z,10.20
2022-11-05T06:51:07.943Z,10.20
2022-11-05T06:53:36.382Z,10.20
2022-11-05T06:56:05.613Z,10.20
2022-11-05T06:58:33.183Z,10.20
2022-11-05T07:01:02.076Z,10.20
2022-11-05T07:03:29.016Z,10.20
2022-11-05T07:05:59.087Z,10.20
2022-11-05T07:08:26.368Z,10.30
2022-11-05T07:10:53.227Z,10.30
2022-11-05T07:13:20.122Z,10.30
2022-11-05T07:15:46.968Z,10.30
2022-11-05T07:18:13.781Z,10.30
2022-11-05T07:20:40.597Z,10.30
2022-11-05T07:23:12.719Z,10.30
2022-11-05T07:25:41.859Z,10.30
2022-11-05T07:28:09.594Z,10.40
2022-11-05T07:30:36.898Z,10.40
2022-11-05T07:33:04.289Z,10.40
2022-11-05T07:35:31.121Z,10.50
2022-11-05T07:37:58.223Z,10.40
2022-11-05T07:40:27.630Z,10.50
2022-11-05T07:42:59.860Z,10.50
2022-11-05T07:45:28.554Z,10.40
2022-11-05T07:47:58.019Z,10.50
2022-11-05T07:50:26.411Z,10.50
2022-11-05T07:52:53.704Z,10.50
2022-11-05T07:55:20.985Z,10.50
2022-11-05T07:57:50.843Z,10.50
2022-11-05T08:00:20.371Z,10.60
2022-11-05T08:03:07.363Z,10.60
2022-11-05T08:05:39.519Z,10.70
2022-11-05T08:08:08.981Z,10.60
2022-11-05T08:10:37.100Z,10.70
2022-11-05T08:13:04.611Z,10.70
2022-11-05T08:15:32.177Z,10.80
2022-11-05T08:18:00.887Z,10.80
2022-11-05T08:20:28.195Z,10.90
2022-11-05T08:22:55.770Z,10.90
2022-11-05T08:25:22.708Z,10.90
2022-11-05T08:27:59.250Z,11.00
2022-11-05T08:30:26.663Z,11.00
2022-11-05T08:33:01.323Z,11.00
2022-11-05T08:35:29.112Z,11.10
2022-11-05T08:38:00.763Z,11.10
2022-11-05T08:40:28.321Z,11.10
2022-11-05T08:42:58.027Z,11.20
2022-11-05T08:45:26.094Z,11.20
2022-11-05T08:48:00.296Z,11.20
2022-11-05T08:50:28.048Z,11.20
2022-11-05T08:52:54.871Z,11.30
2022-11-05T08:55:21.800Z,11.40
2022-11-05T08:57:48.880Z,11.40
2022-11-05T09:00:15.992Z,11.50
2022-11-05T09:02:42.869Z,11.50
2022-11-05T09:05:09.739Z,11.60
2022-11-05T09:07:36.567Z,11.70
2022-11-05T09:10:03.486Z,11.70
2022-11-05T09:12:30.293Z,11.70
2022-11-05T09:14:57.115Z,11.80
2022-11-05T09:17:23.972Z,11.80
2022-11-05T09:19:50.778Z,11.80
2022-11-05T09:22:17.572Z,11.90
2022-11-05T09:24:44.516Z,11.90
2022-11-05T09:27:14.594Z,11.90
2022-11-05T09:29:42.526Z,12.00
2022-11-05T09:32:09.648Z,12.00
2022-11-05T09:34:36.807Z,12.00
2022-11-05T09:37:03.933Z,12.10
2022-11-05T09:39:30.799Z,12.20
2022-11-05T09:42:04.731Z,12.30
2022-11-05T09:44:42.139Z,12.30
2022-11-05T09:47:20.245Z,12.40
2022-11-05T09:49:50.403Z,12.40
2022-11-05T09:52:23.690Z,12.50
2022-11-05T09:54:51.550Z,12.50
2022-11-05T09:57:23.402Z,12.50
2022-11-05T09:59:54.247Z,12.60
2022-11-05T10:02:43.728Z,12.60
2022-11-05T10:05:13.663Z,12.60
2022-11-05T10:07:47.676Z,12.70
2022-11-05T10:10:23.218Z,12.70
2022-11-05T10:13:15.670Z,12.70
2022-11-05T10:16:07.272Z,12.80
2022-11-05T10:18:41.233Z,12.80
2022-11-05T10:21:27.768Z,12.80
2022-11-05T10:24:13.650Z,12.90
2022-11-05T10:26:40.461Z,12.90
2022-11-05T10:29:07.625Z,12.90
2022-11-05T10:31:37.227Z,12.90
2022-11-05T10:34:07.811Z,12.90
2022-11-05T10:36:37.256Z,12.90
2022-11-05T10:39:12.857Z,12.90
2022-11-05T10:41:58.189Z,13.00
2022-11-05T10:44:57.151Z,13.00
2022-11-05T10:47:42.435Z,13.00
2022-11-05T10:50:18.525Z,13.00
2022-11-05T10:52:59.321Z,13.00
2022-11-05T10:55:28.366Z,13.10
2022-11-05T10:57:57.236Z,13.10
2022-11-05T11:00:26.107Z,13.10
2022-11-05T11:02:56.795Z,13.10
2022-11-05T11:05:28.469Z,13.20
2022-11-05T11:08:04.343Z,13.20
2022-11-05T11:10:32.774Z,13.20
2022-11-05T11:13:00.181Z,13.20
2022-11-05T11:15:32.576Z,13.20
2022-11-05T11:18:17.702Z,13.30
2022-11-05T11:20:46.644Z,13.30
2022-11-05T11:23:17.399Z,13.30
2022-11-05T11:26:00.708Z,13.40
2022-11-05T11:28:33.380Z,13.40
2022-11-05T11:31:11.247Z,13.40
2022-11-05T11:33:40.955Z,13.40
2022-11-05T11:36:10.608Z,13.40
2022-11-05T11:38:38.033Z,13.40
2022-11-05T11:41:10.920Z,13.40
2022-11-05T11:43:40.892Z,13.50
2022-11-05T11:46:20.142Z,13.50
2022-11-05T11:48:48.703Z,13.60
2022-11-05T11:51:49.841Z,13.60
2022-11-05T11:54:21.447Z,13.60
2022-11-05T11:56:48.939Z,13.70
2022-11-05T11:59:54.018Z,13.70
2022-11-05T12:02:46.845Z,13.70
2022-11-05T12:05:36.113Z,13.80
2022-11-05T12:08:12.843Z,13.80
2022-11-05T12:10:42.659Z,13.80
2022-11-05T12:13:15.007Z,13.90
2022-11-05T12:16:12.383Z,13.90
2022-11-05T12:18:53.847Z,13.80
2022-11-05T12:21:34.870Z,13.80
2022-11-05T12:24:37.660Z,13.80
2022-11-05T12:27:26.027Z,13.80
2022-11-05T12:30:12.039Z,13.90
2022-11-05T12:32:54.856Z,13.90
2022-11-05T12:35:47.425Z,13.90
2022-11-05T12:38:56.952Z,13.90
2022-11-05T12:41:47.159Z,13.90
2022-11-05T12:44:32.494Z,13.90
2022-11-05T12:47:02.167Z,13.90
2022-11-05T12:49:43.997Z,13.90
2022-11-05T12:52:32.427Z,13.90
2022-11-05T12:55:14.329Z,13.90
2022-11-05T12:57:44.375Z,13.90
2022-11-05T13:00:23.300Z,13.90
2022-11-05T13:02:55.238Z,14.00
2022-11-05T13:05:41.838Z,13.90
2022-11-05T13:08:43.095Z,14.00
2022-11-05T13:11:29.029Z,13.90
2022-11-05T13:14:10.136Z,13.90
2022-11-05T13:16:48.071Z,13.90
2022-11-05T13:19:29.283Z,13.90
2022-11-05T13:22:23.534Z,13.90
2022-11-05T13:24:55.502Z,13.90
2022-11-05T13:28:05.964Z,13.90
2022-11-05T13:30:41.589Z,13.90
2022-11-05T13:33:23.959Z,13.90
2022-11-05T13:36:19.266Z,14.00
2022-11-05T13:39:07.271Z,13.90
2022-11-05T13:41:40.589Z,13.90
2022-11-05T13:44:25.452Z,13.90
2022-11-05T13:47:13.630Z,13.90
2022-11-05T13:50:15.573Z,13.90
2022-11-05T13:53:04.430Z,13.80
2022-11-05T13:55:51.462Z,13.80
2022-11-05T13:58:45.823Z,13.80
2022-11-05T14:01:43.912Z,13.80
2022-11-05T14:04:21.569Z,13.80
2022-11-05T14:06:48.493Z,13.80
2022-11-05T14:09:27.398Z,13.80
2022-11-05T14:11:57.871Z,13.70
2022-11-05T14:14:29.341Z,13.70
2022-11-05T14:17:08.259Z,13.70
2022-11-05T14:19:49.288Z,13.70
2022-11-05T14:22:33.154Z,13.60
2022-11-05T14:25:01.531Z,13.60
2022-11-05T14:27:37.507Z,13.60
2022-11-05T14:30:41.767Z,13.60
2022-11-05T14:33:17.637Z,13.60
2022-11-05T14:35:44.434Z,13.60
2022-11-05T14:38:27.936Z,13.60
2022-11-05T14:41:02.828Z,13.60
2022-11-05T14:43:33.711Z,13.60
2022-11-05T14:46:04.134Z,13.60
2022-11-05T14:48:37.848Z,13.60
2022-11-05T14:51:27.540Z,13.60
2022-11-05T14:54:07.034Z,13.60
2022-11-05T14:56:54.891Z,13.60
2022-11-05T14:59:25.832Z,13.60
2022-11-05T15:02:11.900Z,13.60
2022-11-05T15:04:45.737Z,13.50
2022-11-05T15:07:31.951Z,13.60
2022-11-05T15:10:10.029Z,13.60
2022-11-05T15:13:01.610Z,13.60
2022-11-05T15:15:38.810Z,13.60
2022-11-05T15:18:29.409Z,13.60
2022-11-05T15:21:00.494Z,13.50
2022-11-05T15:23:36.389Z,13.50
2022-11-05T15:26:10.458Z,13.50
2022-11-05T15:28:49.079Z,13.50
2022-11-05T15:31:16.137Z,13.50
2022-11-05T15:33:47.100Z,13.40
2022-11-05T15:36:26.233Z,13.40
2022-11-05T15:39:22.858Z,13.40
2022-11-05T15:41:40.256Z,13.40
2022-11-05T15:44:31.953Z,13.40
2022-11-05T15:47:13.202Z,13.30
2022-11-05T15:49:41.880Z,13.40
2022-11-05T15:52:15.480Z,13.30
2022-11-05T15:54:43.547Z,13.30
2022-11-05T15:57:29.112Z,13.40
2022-11-05T15:59:55.981Z,13.30
2022-11-05T16:02:32.881Z,13.30
2022-11-05T16:05:03.394Z,13.30
2022-11-05T16:07:30.400Z,13.20
2022-11-05T16:09:59.934Z,13.20
2022-11-05T16:12:34.112Z,13.20
2022-11-05T16:15:04.435Z,13.20
2022-11-05T16:17:39.154Z,13.20
2022-11-05T16:20:38.470Z,13.20
2022-11-05T16:23:23.835Z,13.20
2022-11-05T16:25:52.206Z,13.20
2022-11-05T16:28:21.337Z,13.10
2022-11-05T16:31:05.510Z,13.10
2022-11-05T16:33:38.277Z,13.10
2022-11-05T16:36:05.535Z,13.10
2022-11-05T16:38:32.337Z,13.10
2022-11-05T16:41:00.421Z,13.10
2022-11-05T16:43:27.723Z,13.00
2022-11-05T16:45:58.194Z,13.00
2022-11-05T16:48:26.079Z,13.00
2022-11-05T16:50:53.509Z,13.10
2022-11-05T16:53:20.736Z,13.00
2022-11-05T16:55:47.816Z,13.00
2022-11-05T16:58:26.088Z,13.00
2022-11-05T17:01:02.759Z,13.00
2022-11-05T17:03:29.806Z,12.90
2022-11-05T17:05:56.626Z,13.00
2022-11-05T17:08:23.458Z,13.00
2022-11-05T17:10:50.369Z,13.00
2022-11-05T17:13:18.673Z,12.90
2022-11-05T17:15:47.648Z,12.90
2022-11-05T17:18:18.571Z,12.90
2022-11-05T17:20:51.193Z,12.90
2022-11-05T17:23:23.568Z,12.90
2022-11-05T17:25:56.205Z,12.90
2022-11-05T17:28:23.868Z,12.90
2022-11-05T17:30:52.901Z,12.90
2022-11-05T17:33:22.907Z,12.90
2022-11-05T17:35:50.755Z,12.90
2022-11-05T17:38:17.790Z,12.90
2022-11-05T17:40:45.217Z,12.90
2022-11-05T17:43:12.264Z,12.90
2022-11-05T17:45:47.814Z,12.90
2022-11-05T17:48:15.760Z,12.90
2022-11-05T17:50:44.475Z,12.90
2022-11-05T17:53:12.591Z,12.90
2022-11-05T17:55:44.166Z,12.90
2022-11-05T17:58:11.518Z,12.90
2022-11-05T18:00:39.181Z,12.90
2022-11-05T18:03:06.032Z,12.90
2022-11-05T18:05:34.387Z,12.90
2022-11-05T18:08:01.330Z,12.90
2022-11-05T18:10:28.145Z,12.90
2022-11-05T18:12:55.181Z,12.80
2022-11-05T18:15:22.131Z,12.80
2022-11-05T18:17:48.974Z,12.70
2022-11-05T18:20:19.226Z,12.70
2022-11-05T18:22:48.878Z,12.80
2022-11-05T18:25:16.166Z,12.80
2022-11-05T18:27:43.701Z,12.70
2022-11-05T18:30:14.037Z,12.70
2022-11-05T18:32:41.637Z,12.70
2022-11-05T18:35:08.888Z,12.70
2022-11-05T18:37:37.758Z,12.70
2022-11-05T18:40:05.761Z,12.70
2022-11-05T18:42:32.766Z,12.70
2022-11-05T18:44:59.863Z,12.70
2022-11-05T18:47:26.663Z,12.70
2022-11-05T18:49:53.456Z,12.70
2022-11-05T18:52:20.265Z,12.70
2022-11-05T18:54:47.080Z,12.70
2022-11-05T18:57:13.898Z,12.70
2022-11-05T18:59:42.233Z,12.70
2022-11-05T19:02:11.189Z,12.70
2022-11-05T19:04:38.882Z,12.70
2022-11-05T19:07:06.820Z,12.70
2022-11-05T19:09:38.788Z,12.70
2022-11-05T19:12:07.246Z,12.70
2022-11-05T19:14:35.350Z,12.70
2022-11-05T19:17:02.889Z,12.70
2022-11-05T19:19:29.768Z,12.70
2022-11-05T19:21:56.717Z,12.70
2022-11-05T19:24:23.682Z,12.70
2022-11-05T19:26:50.625Z,12.70
2022-11-05T19:29:17.637Z,12.70
2022-11-05T19:31:44.485Z,12.70
2022-11-05T19:34:13.342Z,12.70
2022-11-05T19:36:40.665Z,12.70
2022-11-05T19:39:09.310Z,12.60
2022-11-05T19:41:36.194Z,12.60
2022-11-05T19:44:03.423Z,12.70
2022-11-05T19:46:31.673Z,12.70
2022-11-05T19:49:00.471Z,12.70
2022-11-05T19:51:29.378Z,12.70
2022-11-05T19:53:56.479Z,12.70
2022-11-05T19:56:26.235Z,12.70
2022-11-05T19:58:54.134Z,12.70
2022-11-05T20:01:23.373Z,12.70
2022-11-05T20:03:51.315Z,12.70
2022-11-05T20:06:25.796Z,12.70
2022-11-05T20:09:20.103Z,12.80
2022-11-05T20:11:40.193Z,12.80
2022-11-05T20:14:08.351Z,12.80
2022-11-05T20:16:40.059Z,12.80
2022-11-05T20:19:10.327Z,12.70
2022-11-05T20:21:37.779Z,12.70
2022-11-05T20:24:05.055Z,12.70
2022-11-05T20:26:32.720Z,12.70
2022-11-05T20:28:59.818Z,12.70
2022-11-05T20:31:26.674Z,12.70
2022-11-05T20:33:54.541Z,12.70
2022-11-05T20:36:24.133Z,12.70
2022-11-05T20:38:56.666Z,12.70
2022-11-05T20:41:24.159Z,12.70
2022-11-05T20:43:51.406Z,12.70
2022-11-05T20:46:20.070Z,12.70
2022-11-05T20:48:47.459Z,12.70
2022-11-05T20:51:19.177Z,12.70
2022-11-05T20:53:46.580Z,12.70
2022-11-05T20:56:19.064Z,12.70
2022-11-05T20:58:46.258Z,12.70
2022-11-05T21:01:15.572Z,12.70
2022-11-05T21:03:43.344Z,12.70
2022-11-05T21:06:10.309Z,12.70
2022-11-05T21:08:37.307Z,12.80
2022-11-05T21:11:04.243Z,12.80
2022-11-05T21:13:31.154Z,12.70
2022-11-05T21:15:59.850Z,12.80
2022-11-05T21:18:29.147Z,12.70
2022-11-05T21:20:56.663Z,12.70
2022-11-05T21:23:23.962Z,12.70
2022-11-05T21:25:50.838Z,12.70
2022-11-05T21:28:18.310Z,12.70
2022-11-05T21:30:46.060Z,12.70
2022-11-05T21:33:14.541Z,12.70
2022-11-05T21:35:44.165Z,12.70
2022-11-05T21:38:12.233Z,12.70
2022-11-05T21:40:40.210Z,12.70
2022-11-05T21:43:07.459Z,12.70
2022-11-05T21:45:34.843Z,12.70
2022-11-05T21:48:01.675Z,12.70
2022-11-05T21:50:46.946Z,12.70
2022-11-05T21:53:33.598Z,12.70
2022-11-05T21:56:19.123Z,12.70
2022-11-05T21:59:18.238Z,12.70
2022-11-05T22:01:45.108Z,12.70
2022-11-05T22:04:11.974Z,12.70
2022-11-05T22:06:38.755Z,12.70
2022-11-05T22:09:06.180Z,12.70
2022-11-05T22:11:37.569Z,12.70
2022-11-05T22:14:04.607Z,12.70
2022-11-05T22:16:31.411Z,12.70
2022-11-05T22:18:58.889Z,12.70
2022-11-05T22:21:25.712Z,12.70
2022-11-05T22:23:52.953Z,12.70
2022-11-05T22:26:19.933Z,12.70
2022-11-05T22:28:46.759Z,12.70
2022-11-05T22:31:14.788Z,12.70
2022-11-05T22:33:42.493Z,12.70
2022-11-05T22:36:10.136Z,12.70
2022-11-05T22:38:37.041Z,12.70
2022-11-05T22:41:11.507Z,12.70
2022-11-05T22:43:38.436Z,12.80
2022-11-05T22:46:10.413Z,12.80
2022-11-05T22:48:39.081Z,12.80
2022-11-05T22:51:14.472Z,12.80
2022-11-05T22:53:41.729Z,12.80
2022-11-05T22:56:13.707Z,12.80
2022-11-05T22:58:40.907Z,12.80
2022-11-05T23:01:11.830Z,12.80
2022-11-05T23:03:40.423Z,12.80
2022-11-05T23:06:37.328Z,12.80
2022-11-05T23:09:28.878Z,12.80
2022-11-05T23:11:57.416Z,12.80
2022-11-05T23:14:24.901Z,12.80
2022-11-05T23:17:10.425Z,12.80
2022-11-05T23:19:55.925Z,12.80
2022-11-05T23:22:45.043Z,12.80
2022-11-05T23:25:18.347Z,12.80
2022-11-05T23:27:47.502Z,12.80
2022-11-05T23:30:21.487Z,12.80
2022-11-05T23:32:49.522Z,12.80
2022-11-05T23:35:16.863Z,12.80
2022-11-05T23:38:02.861Z,12.80
2022-11-05T23:40:52.100Z,12.80
2022-11-05T23:43:37.508Z,12.80
2022-11-05T23:46:23.149Z,12.70
2022-11-05T23:48:50.905Z,12.70
2022-11-05T23:51:18.270Z,12.70
2022-11-05T23:53:45.067Z,12.70
2022-11-05T23:56:14.450Z,12.70
2022-11-05T23:58:42.230Z,12.70
